Time;durP1;ratioP1;P1;durP2;ratioP2;P2;SDS_P1;SDS_P2;PMS_P1;PMS_P2;Temp;Humidity;BMP_temperature;BMP_pressure;BME280_temperature;BME280_humidity;BME280_pressure;Samples;Min_cycle;Max_cycle;Signal;HPM_P1;HPM_P2
2022/09/05 00:01:04;;;;;;;24.15;14.58;;;17.30;71.50;;;;;;1862683;77;21006;-67
2022/09/05 00:03:45;;;;;;;22.70;14.15;;;17.30;71.50;;;;;;1862563;77;21038;-67
2022/09/05 00:06:15;;;;;;;24.90;14.80;;;17.20;71.30;;;;;;1879414;75;21008;-67
2022/09/05 00:08:53;;;;;;;21.10;15.00;;;17.20;71.70;;;;;;1898516;75;21039;-67
2022/09/05 00:11:46;;;;;;;23.60;14.40;;;17.20;71.70;;;;;;1898673;75;21023;-67
2022/09/05 00:14:43;;;;;;;21.23;14.43;;;17.20;71.80;;;;;;1898615;75;21031;-67
2022/09/05 00:17:18;;;;;;;21.93;13.53;;;17.30;71.40;;;;;;1898593;75;21121;-66
2022/09/05 00:20:05;;;;;;;22.27;14.00;;;17.30;71.60;;;;;;1897782;75;21443;-67
2022/09/05 00:22:39;;;;;;;19.73;13.55;;;17.30;71.40;;;;;;1898630;75;20980;-67
2022/09/05 00:25:13;;;;;;;23.38;14.53;;;17.30;71.30;;;;;;1898745;75;21035;-67
2022/09/05 00:27:45;;;;;;;24.23;15.80;;;17.30;71.30;;;;;;1898684;75;20941;-67
2022/09/05 00:30:19;;;;;;;20.00;13.25;;;17.30;71.30;;;;;;1896359;75;21016;-67
2022/09/05 00:33:13;;;;;;;25.80;15.45;;;17.30;71.10;;;;;;1898857;75;20949;-67
2022/09/05 00:36:04;;;;;;;21.12;14.43;;;17.20;70.90;;;;;;1898543;75;21490;-66
2022/09/05 00:38:33;;;;;;;19.92;13.93;;;17.20;71.30;;;;;;1898608;75;20965;-67
2022/09/05 00:41:05;;;;;;;22.60;14.55;;;17.20;71.60;;;;;;1898543;75;21031;-67
2022/09/05 00:43:43;;;;;;;21.60;13.20;;;17.20;71.50;;;;;;1898633;75;20977;-67
2022/09/05 00:46:18;;;;;;;20.20;13.22;;;17.10;71.50;;;;;;1898701;75;21125;-66
2022/09/05 00:48:52;;;;;;;19.52;13.32;;;17.00;71.30;;;;;;1897482;75;21461;-66
2022/09/05 00:51:45;;;;;;;22.67;14.33;;;17.00;71.80;;;;;;1898842;75;20941;-67
2022/09/05 00:54:43;;;;;;;22.40;14.63;;;17.00;71.90;;;;;;1898543;75;21038;-67
2022/09/05 00:57:49;;;;;;;19.37;13.03;;;16.90;71.90;;;;;;1898568;75;20969;-66
2022/09/05 01:00:26;;;;;;;21.42;14.18;;;16.90;71.80;;;;;;1898629;75;21477;-67
2022/09/05 01:03:08;;;;;;;18.77;12.53;;;16.80;71.90;;;;;;1898012;75;21075;-66
2022/09/05 01:05:54;;;;;;;19.32;13.55;;;16.80;72.00;;;;;;1897233;75;20981;-66
2022/09/05 01:08:56;;;;;;;20.27;13.83;;;16.70;71.90;;;;;;1897396;75;20973;-67
2022/09/05 01:11:47;;;;;;;19.70;12.65;;;16.70;72.00;;;;;;1898525;75;21462;-67
2022/09/05 01:14:51;;;;;;;21.97;13.72;;;16.60;72.10;;;;;;1898526;75;21380;-67
2022/09/05 01:17:40;;;;;;;23.20;14.15;;;16.50;72.20;;;;;;1896694;75;21087;-66
2022/09/05 01:20:41;;;;;;;21.52;13.30;;;16.60;72.50;;;;;;1827512;76;21051;-66
2022/09/05 01:23:31;;;;;;;22.02;12.95;;;16.60;72.20;;;;;;1892142;76;21398;-66
2022/09/05 01:26:15;;;;;;;17.42;11.83;;;16.60;72.30;;;;;;1884998;76;21032;-67
2022/09/05 01:29:03;;;;;;;23.92;14.10;;;16.60;72.20;;;;;;1891084;76;20982;-67
2022/09/05 01:31:41;;;;;;;18.62;13.10;;;16.50;72.20;;;;;;1892045;76;21044;-66
2022/09/05 01:34:19;;;;;;;18.52;12.37;;;16.50;72.70;;;;;;1880474;74;21017;-66
2022/09/05 01:37:00;;;;;;;19.87;11.25;;;16.60;72.70;;;;;;1891991;76;20973;-66
2022/09/05 01:39:31;;;;;;;19.00;12.82;;;16.60;72.70;;;;;;1891854;76;20973;-66
2022/09/05 01:42:21;;;;;;;18.85;11.68;;;16.60;72.70;;;;;;1891669;75;20977;-67
2022/09/05 01:44:59;;;;;;;19.90;11.68;;;16.60;72.70;;;;;;1890253;76;21066;-66
2022/09/05 01:47:45;;;;;;;17.50;10.82;;;16.50;72.90;;;;;;1892020;76;20993;-66
2022/09/05 01:50:46;;;;;;;15.43;10.43;;;16.40;72.80;;;;;;1891521;76;20965;-66
2022/09/05 01:53:35;;;;;;;20.68;13.88;;;16.40;72.90;;;;;;1891968;76;21145;-66
2022/09/05 01:56:40;;;;;;;11.00;9.08;;;16.30;73.00;;;;;;1891997;73;21047;-66
2022/09/05 01:59:12;;;;;;;16.75;11.22;;;16.20;73.20;;;;;;1891972;76;20961;-66
2022/09/05 02:01:59;;;;;;;21.75;11.88;;;16.10;73.10;;;;;;1892190;76;20981;-66
2022/09/05 02:04:42;;;;;;;16.45;9.88;;;16.20;73.70;;;;;;1890947;76;21043;-66
2022/09/05 02:07:33;;;;;;;17.70;11.75;;;16.20;73.40;;;;;;1891968;76;21063;-66
2022/09/05 02:10:32;;;;;;;17.25;11.28;;;16.20;73.70;;;;;;1891950;76;21027;-66
2022/09/05 02:13:37;;;;;;;16.32;10.28;;;16.30;73.70;;;;;;1892075;76;20965;-66
2022/09/05 02:16:23;;;;;;;24.27;13.55;;;16.30;73.30;;;;;;1892003;76;20962;-66
2022/09/05 02:18:55;;;;;;;17.67;12.85;;;16.20;73.30;;;;;;1895034;75;21106;-66
2022/09/05 02:21:45;;;;;;;17.67;12.30;;;16.20;73.40;;;;;;1898506;75;21038;-66
2022/09/05 02:24:19;;;;;;;20.35;12.68;;;16.10;73.00;;;;;;1898498;75;21447;-66
2022/09/05 02:27:15;;;;;;;20.95;14.03;;;16.10;72.70;;;;;;1898616;75;20973;-66
2022/09/05 02:29:44;;;;;;;;;;;16.00;73.30;;;;;;1901299;75;20953;-66
2022/09/05 02:32:34;;;;;;;18.12;12.53;;;16.00;73.00;;;;;;1897860;74;20131;-66
2022/09/05 02:35:17;;;;;;;15.83;10.30;;;15.90;72.90;;;;;;1897028;75;21395;-66
2022/09/05 02:37:52;;;;;;;19.73;13.35;;;15.80;73.10;;;;;;1898501;75;21487;-66
2022/09/05 02:40:39;;;;;;;18.85;11.55;;;15.70;73.20;;;;;;1898742;75;21046;-66
2022/09/05 02:43:10;;;;;;;26.50;13.45;;;15.70;73.40;;;;;;1898471;75;21506;-66
2022/09/05 02:45:42;;;;;;;16.42;11.63;;;15.60;73.50;;;;;;1897449;75;20969;-66
2022/09/05 02:48:36;;;;;;;17.62;12.20;;;15.60;73.70;;;;;;1893069;74;20988;-66
2022/09/05 02:51:10;;;;;;;16.17;11.45;;;15.50;73.30;;;;;;1898474;75;21443;-66
2022/09/05 02:53:41;;;;;;;15.83;11.38;;;15.50;73.60;;;;;;1898606;75;21411;-66
2022/09/05 02:56:16;;;;;;;17.92;11.35;;;15.40;73.70;;;;;;1898527;75;21488;-66
2022/09/05 02:59:05;;;;;;;18.90;13.08;;;15.40;74.10;;;;;;1896560;75;21467;-66
2022/09/05 03:01:37;;;;;;;20.08;12.55;;;15.30;74.00;;;;;;1897681;75;20977;-66
2022/09/05 03:04:33;;;;;;;17.37;11.65;;;15.30;74.00;;;;;;1898592;75;21036;-66
2022/09/05 03:07:07;;;;;;;18.48;12.25;;;15.20;74.10;;;;;;1898721;75;21447;-66
2022/09/05 03:10:03;;;;;;;24.82;12.95;;;15.30;74.60;;;;;;1898173;75;21098;-66
2022/09/05 03:12:51;;;;;;;20.23;11.70;;;15.30;74.50;;;;;;1834065;75;21461;-66
2022/09/05 03:15:25;;;;;;;20.12;13.48;;;15.30;74.30;;;;;;1897194;75;21062;-66
2022/09/05 03:18:23;;;;;;;18.65;11.78;;;15.30;74.30;;;;;;1897664;74;20980;-66
2022/09/05 03:21:28;;;;;;;20.05;13.75;;;15.40;74.30;;;;;;1897826;75;20985;-66
2022/09/05 03:24:05;;;;;;;21.87;12.58;;;15.30;74.30;;;;;;1898840;75;21027;-66
2022/09/05 03:27:02;;;;;;;10.58;7.00;;;15.30;74.20;;;;;;1895144;75;20970;-66
2022/09/05 03:30:07;;;;;;;15.72;9.53;;;15.30;79.50;;;;;;1898605;75;20969;-62
2022/09/05 03:32:59;;;;;;;19.20;12.60;;;15.80;84.10;;;;;;1898572;75;21473;-57
2022/09/05 03:35:49;;;;;;;16.67;12.10;;;16.30;80.30;;;;;;1898661;75;21469;-57
2022/09/05 03:38:43;;;;;;;18.92;12.73;;;16.50;75.50;;;;;;1896902;75;20969;-57
2022/09/05 03:41:36;;;;;;;19.32;12.78;;;16.40;75.10;;;;;;1894963;75;21016;-57
2022/09/05 03:44:13;;;;;;;17.73;12.65;;;16.20;75.00;;;;;;1898672;75;20973;-57
2022/09/05 03:47:05;;;;;;;18.42;12.37;;;16.10;73.90;;;;;;1893577;75;20973;-57
2022/09/05 03:49:49;;;;;;;18.55;11.65;;;15.90;73.80;;;;;;1898610;75;20977;-57
2022/09/05 03:52:53;;;;;;;20.12;11.30;;;15.70;73.60;;;;;;1897290;75;20981;-57
2022/09/05 03:55:40;;;;;;;17.15;11.73;;;15.60;73.40;;;;;;1898574;75;21047;-57
2022/09/05 03:58:33;;;;;;;15.50;10.20;;;15.50;73.50;;;;;;1897533;75;21035;-57
2022/09/05 04:01:04;;;;;;;17.87;11.85;;;15.40;73.10;;;;;;1897933;75;20977;-57
2022/09/05 04:03:42;;;;;;;15.05;10.38;;;15.30;73.30;;;;;;1898570;75;20981;-57
2022/09/05 04:06:28;;;;;;;18.77;11.83;;;15.20;73.10;;;;;;1898341;75;21148;-57
2022/09/05 04:09:28;;;;;;;16.93;9.23;;;15.10;73.20;;;;;;1898538;75;20957;-57
2022/09/05 04:12:00;;;;;;;20.97;13.22;;;15.10;73.10;;;;;;1897910;75;21114;-57
2022/09/05 04:14:34;;;;;;;21.82;13.03;;;15.00;73.50;;;;;;1895637;75;21400;-57
2022/09/05 04:17:12;;;;;;;17.75;10.43;;;14.90;73.60;;;;;;1885797;75;21415;-57
2022/09/05 04:19:50;;;;;;;16.67;12.07;;;14.90;73.50;;;;;;1888581;75;21040;-57
2022/09/05 04:22:51;;;;;;;18.27;10.48;;;14.90;73.60;;;;;;1898502;75;20988;-57
2022/09/05 04:25:26;;;;;;;17.75;10.35;;;14.80;73.70;;;;;;1898472;75;21102;-57
2022/09/05 04:28:03;;;;;;;16.65;11.75;;;14.80;73.80;;;;;;1895985;75;20985;-57
2022/09/05 04:30:47;;;;;;;21.30;13.65;;;14.80;73.50;;;;;;1841572;75;20989;-57
2022/09/05 04:33:30;;;;;;;19.12;12.55;;;14.70;73.50;;;;;;1898466;75;21521;-57
2022/09/05 04:36:10;;;;;;;23.45;13.03;;;14.70;73.90;;;;;;1898556;75;20958;-57
2022/09/05 04:38:42;;;;;;;20.52;13.13;;;14.70;74.00;;;;;;1897361;75;20996;-57
2022/09/05 04:41:19;;;;;;;13.55;9.45;;;14.70;73.90;;;;;;1898672;75;21039;-57
2022/09/05 04:43:54;;;;;;;12.35;8.48;;;14.60;73.80;;;;;;1898495;75;21007;-57
2022/09/05 04:46:27;;;;;;;18.48;12.68;;;14.50;73.90;;;;;;1898776;75;21062;-57
2022/09/05 04:49:13;;;;;;;14.15;9.95;;;14.50;74.10;;;;;;1898547;75;21426;-57
2022/09/05 04:52:02;;;;;;;21.80;14.50;;;14.50;74.40;;;;;;1898515;75;20976;-57
2022/09/05 04:54:55;;;;;;;19.27;12.60;;;14.60;74.60;;;;;;1897449;75;20984;-57
2022/09/05 04:57:32;;;;;;;17.67;11.53;;;14.70;74.40;;;;;;1897588;74;21058;-57
2022/09/05 05:00:04;;;;;;;21.70;11.93;;;14.80;73.80;;;;;;1898602;75;20997;-57
2022/09/05 05:02:47;;;;;;;20.57;10.80;;;14.80;73.90;;;;;;1898476;75;21435;-57
2022/09/05 05:05:22;;;;;;;20.77;11.38;;;14.80;74.10;;;;;;1898512;75;21428;-57
2022/09/05 05:08:03;;;;;;;19.35;11.97;;;14.80;74.00;;;;;;1896365;75;21427;-57
2022/09/05 05:10:35;;;;;;;17.70;10.45;;;14.80;73.60;;;;;;1889228;75;20977;-57
2022/09/05 05:13:09;;;;;;;17.35;11.57;;;14.70;73.80;;;;;;1897759;75;20985;-57
2022/09/05 05:15:41;;;;;;;21.95;13.90;;;14.80;74.00;;;;;;1898730;75;21423;-57
2022/09/05 05:18:15;;;;;;;15.48;10.63;;;14.70;74.00;;;;;;1897692;75;20988;-57
2022/09/05 05:21:03;;;;;;;25.82;12.13;;;14.80;74.00;;;;;;1892916;75;20993;-57
2022/09/05 05:23:47;;;;;;;20.48;13.95;;;14.80;73.70;;;;;;1891962;76;20981;-57
2022/09/05 05:26:42;;;;;;;18.67;11.95;;;14.80;73.70;;;;;;1891004;76;20977;-57
2022/09/05 05:29:23;;;;;;;18.32;11.73;;;14.80;73.80;;;;;;1892106;76;21415;-57
2022/09/05 05:31:55;;;;;;;19.85;13.22;;;14.90;74.00;;;;;;1891790;76;21391;-57
2022/09/05 05:34:29;;;;;;;20.20;11.80;;;15.00;73.80;;;;;;1892079;76;21023;-57
2022/09/05 05:37:07;;;;;;;18.67;10.78;;;15.00;73.70;;;;;;1892007;75;21412;-57
2022/09/05 05:39:38;;;;;;;18.80;12.05;;;15.00;73.60;;;;;;1892024;76;20985;-57
2022/09/05 05:42:16;;;;;;;20.77;13.72;;;15.00;73.60;;;;;;1891955;75;20977;-58
2022/09/05 05:44:53;;;;;;;21.15;14.05;;;15.00;73.80;;;;;;1890918;76;20953;-57
2022/09/05 05:47:36;;;;;;;19.55;12.58;;;15.10;74.10;;;;;;1891932;76;21006;-57
2022/09/05 05:50:09;;;;;;;16.48;11.22;;;15.20;73.60;;;;;;1891194;76;20997;-57
2022/09/05 05:52:43;;;;;;;21.48;12.23;;;15.30;73.20;;;;;;1891240;76;21063;-57
2022/09/05 05:55:30;;;;;;;19.55;13.32;;;15.20;73.40;;;;;;1890526;76;20977;-57
2022/09/05 05:58:36;;;;;;;17.62;10.68;;;15.20;73.20;;;;;;1891849;76;20993;-57
2022/09/05 06:01:14;;;;;;;21.00;13.18;;;15.20;73.20;;;;;;1891733;76;21416;-57
2022/09/05 06:03:57;;;;;;;19.85;11.88;;;15.20;73.10;;;;;;1840405;76;20985;-57
2022/09/05 06:06:34;;;;;;;21.30;13.80;;;15.20;73.40;;;;;;1890594;76;21053;-57
2022/09/05 06:09:30;;;;;;;22.05;12.50;;;15.40;73.40;;;;;;1891752;76;21001;-57
2022/09/05 06:12:03;;;;;;;23.60;15.00;;;15.50;73.30;;;;;;1892081;76;21059;-57
2022/09/05 06:15:02;;;;;;;19.82;11.95;;;15.70;72.90;;;;;;1891507;76;21431;-57
2022/09/05 06:17:46;;;;;;;22.93;13.28;;;15.70;72.10;;;;;;1891904;76;21395;-58
2022/09/05 06:20:47;;;;;;;20.33;12.97;;;15.80;72.20;;;;;;1893418;73;21025;-57
2022/09/05 06:23:35;;;;;;;19.45;13.08;;;15.90;72.20;;;;;;1898419;75;20937;-57
2022/09/05 06:26:22;;;;;;;21.57;12.98;;;15.90;72.00;;;;;;1898397;75;20981;-58
2022/09/05 06:29:12;;;;;;;15.83;10.72;;;15.90;72.10;;;;;;1896431;75;20988;-57
2022/09/05 06:31:59;;;;;;;25.70;14.13;;;16.00;72.10;;;;;;1896309;75;20980;-57
2022/09/05 06:34:53;;;;;;;20.15;13.78;;;16.00;71.70;;;;;;1898454;75;21056;-57
2022/09/05 06:37:37;;;;;;;19.20;14.28;;;16.00;71.80;;;;;;1898455;75;21043;-57
2022/09/05 06:40:26;;;;;;;18.92;13.78;;;16.00;71.90;;;;;;1898176;75;21039;-58
2022/09/05 06:43:19;;;;;;;20.12;12.82;;;16.00;71.40;;;;;;1898680;75;20973;-58
2022/09/05 06:46:06;;;;;;;22.25;13.55;;;16.10;71.50;;;;;;1898649;75;21423;-57
2022/09/05 06:49:00;;;;;;;20.30;11.85;;;16.20;71.10;;;;;;1897634;75;20953;-58
2022/09/05 06:51:46;;;;;;;23.85;15.40;;;16.10;70.50;;;;;;1897673;75;21021;-57
2022/09/05 06:54:51;;;;;;;21.27;12.63;;;16.10;70.80;;;;;;1897556;75;20990;-57
2022/09/05 06:57:49;;;;;;;19.65;11.55;;;16.20;70.90;;;;;;1898510;75;21048;-57
2022/09/05 07:00:24;;;;;;;21.10;12.10;;;16.30;70.50;;;;;;1898613;75;21495;-57
2022/09/05 07:03:15;;;;;;;18.67;9.63;;;16.30;70.50;;;;;;1896938;75;20968;-57
2022/09/05 07:05:56;;;;;;;14.78;10.60;;;16.40;69.80;;;;;;1898541;75;21026;-57
2022/09/05 07:08:43;;;;;;;14.60;9.70;;;16.40;69.60;;;;;;1898617;75;20961;-57
2022/09/05 07:11:26;;;;;;;21.20;12.15;;;16.50;69.60;;;;;;1898583;75;20977;-58
2022/09/05 07:14:01;;;;;;;20.90;12.60;;;16.50;69.30;;;;;;1898532;75;20977;-57
2022/09/05 07:16:38;;;;;;;20.43;12.50;;;16.60;69.80;;;;;;1898709;75;20970;-58
2022/09/05 07:19:13;;;;;;;20.40;13.25;;;16.70;69.60;;;;;;1898725;75;20984;-57
2022/09/05 07:21:51;;;;;;;22.65;11.35;;;16.80;69.60;;;;;;1892398;75;21075;-57
2022/09/05 07:24:26;;;;;;;17.62;11.60;;;16.80;69.10;;;;;;1888338;76;21021;-58
2022/09/05 07:26:55;;;;;;;;;;;16.90;69.10;;;;;;1894821;76;20961;-57
2022/09/05 07:29:28;;;;;;;17.17;11.97;;;16.90;68.80;;;;;;1892073;76;20404;-57
2022/09/05 07:32:00;;;;;;;16.02;10.95;;;16.90;69.20;;;;;;1891929;75;20993;-57
2022/09/05 07:34:33;;;;;;;19.90;13.00;;;17.00;69.30;;;;;;1892030;76;21443;-57
2022/09/05 07:37:11;;;;;;;23.35;13.85;;;17.10;69.10;;;;;;1891992;76;21051;-57
2022/09/05 07:39:43;;;;;;;21.15;13.58;;;17.20;69.00;;;;;;1892125;76;20985;-57
2022/09/05 07:42:14;;;;;;;19.62;13.65;;;17.30;68.90;;;;;;1892005;76;20993;-57
2022/09/05 07:44:50;;;;;;;18.20;13.05;;;17.30;68.30;;;;;;1892087;76;21043;-57
2022/09/05 07:47:27;;;;;;;18.55;12.93;;;17.30;68.10;;;;;;1890443;75;20978;-58
2022/09/05 07:49:59;;;;;;;17.75;11.85;;;17.30;68.00;;;;;;1890759;76;21052;-57
2022/09/05 07:52:29;;;;;;;20.65;12.37;;;17.30;67.90;;;;;;1892057;76;21047;-57
2022/09/05 07:55:01;;;;;;;16.80;12.33;;;17.30;68.00;;;;;;1891986;76;21013;-57
2022/09/05 07:57:32;;;;;;;20.40;11.65;;;17.30;68.00;;;;;;1892005;76;21333;-58
2022/09/05 08:00:10;;;;;;;19.35;13.35;;;17.40;67.30;;;;;;1892065;76;20969;-57
2022/09/05 08:02:46;;;;;;;14.05;9.75;;;17.50;66.70;;;;;;1892152;76;21473;-57
2022/09/05 08:05:19;;;;;;;15.80;9.80;;;17.60;65.60;;;;;;1891903;76;21435;-57
2022/09/05 08:07:57;;;;;;;16.65;11.78;;;17.60;66.10;;;;;;1892048;76;21035;-57
2022/09/05 08:10:31;;;;;;;15.23;10.15;;;17.70;66.20;;;;;;1892093;76;21001;-57
2022/09/05 08:13:03;;;;;;;17.15;9.53;;;17.90;66.20;;;;;;1891922;76;20961;-57
2022/09/05 08:15:32;;;;;;;20.52;12.30;;;18.00;64.90;;;;;;1890517;76;20965;-57
2022/09/05 08:18:13;;;;;;;11.80;8.58;;;18.10;64.60;;;;;;1891905;76;21017;-57
2022/09/05 08:20:57;;;;;;;13.00;8.93;;;18.10;64.30;;;;;;1893908;75;21510;-57
2022/09/05 08:23:44;;;;;;;16.42;11.22;;;18.20;64.00;;;;;;1901412;75;20957;-57
2022/09/05 08:26:27;;;;;;;13.32;10.10;;;18.30;64.20;;;;;;1867616;75;21032;-57
2022/09/05 08:29:29;;;;;;;13.85;10.35;;;18.30;63.60;;;;;;1866706;75;21081;-57
2022/09/05 08:32:13;;;;;;;15.40;10.40;;;18.30;63.70;;;;;;1901255;75;21028;-57
2022/09/05 08:34:56;;;;;;;19.20;12.82;;;18.20;63.30;;;;;;1901199;75;20977;-57
2022/09/05 08:37:31;;;;;;;14.18;9.25;;;18.20;63.50;;;;;;1900718;75;21039;-57
2022/09/05 08:40:02;;;;;;;14.30;9.45;;;18.30;63.20;;;;;;1901395;75;21387;-57
2022/09/05 08:42:40;;;;;;;12.68;9.30;;;18.30;61.90;;;;;;1899468;75;21035;-57
2022/09/05 08:45:23;;;;;;;12.53;8.45;;;18.20;61.70;;;;;;1899465;75;20981;-57
2022/09/05 08:48:19;;;;;;;9.95;6.83;;;18.20;60.90;;;;;;1901244;75;20949;-57
2022/09/05 08:51:05;;;;;;;;;;;18.20;61.00;;;;;;1904177;75;21027;-57
2022/09/05 08:54:08;;;;;;;23.07;9.30;;;18.20;61.10;;;;;;1901405;75;20085;-57
2022/09/05 08:57:03;;;;;;;13.30;8.25;;;18.30;61.20;;;;;;1901252;75;20993;-58
2022/09/05 08:59:55;;;;;;;22.55;13.88;;;18.40;61.30;;;;;;1901169;75;21038;-57
2022/09/05 09:02:33;;;;;;;13.50;8.83;;;18.60;61.60;;;;;;1830590;77;21133;-57
2022/09/05 09:05:10;;;;;;;14.30;9.40;;;18.60;60.30;;;;;;1829990;78;21100;-57
2022/09/05 09:07:50;;;;;;;18.25;9.70;;;18.60;60.50;;;;;;1868214;75;20977;-57
2022/09/05 09:10:28;;;;;;;10.88;7.12;;;18.60;61.20;;;;;;1901451;75;21055;-57
2022/09/05 09:13:33;;;;;;;13.68;9.00;;;18.60;60.80;;;;;;1901377;75;21470;-57
2022/09/05 09:16:22;;;;;;;13.00;9.58;;;18.70;61.10;;;;;;1901308;75;20989;-57
2022/09/05 09:18:54;;;;;;;13.08;8.60;;;18.80;61.00;;;;;;1900660;75;20973;-57
2022/09/05 09:21:37;;;;;;;11.73;8.18;;;18.80;60.30;;;;;;1901335;75;21074;-58
2022/09/05 09:24:21;;;;;;;15.23;9.10;;;18.80;60.50;;;;;;1901006;74;20993;-57
2022/09/05 09:26:53;;;;;;;14.13;9.25;;;18.80;61.00;;;;;;1901348;75;21447;-57
2022/09/05 09:29:23;;;;;;;14.05;9.75;;;18.90;60.70;;;;;;1892305;75;21020;-57
2022/09/05 09:32:07;;;;;;;12.63;9.45;;;18.90;60.50;;;;;;1901263;75;20981;-57
2022/09/05 09:34:44;;;;;;;10.93;8.28;;;18.90;60.80;;;;;;1901372;75;20981;-58
2022/09/05 09:37:49;;;;;;;16.07;11.03;;;18.90;60.40;;;;;;1901307;75;21055;-57
2022/09/05 09:40:48;;;;;;;17.10;9.95;;;18.80;60.70;;;;;;1899644;75;20981;-57
2022/09/05 09:43:26;;;;;;;12.15;9.23;;;18.90;61.00;;;;;;1901316;75;20961;-58
2022/09/05 09:46:19;;;;;;;11.97;9.05;;;19.00;61.10;;;;;;1900972;75;21046;-57
2022/09/05 09:48:57;;;;;;;11.28;8.23;;;19.00;60.50;;;;;;1901464;75;20965;-57
2022/09/05 09:51:43;;;;;;;14.68;8.95;;;19.00;60.00;;;;;;1901299;75;21485;-58
2022/09/05 09:54:32;;;;;;;13.22;9.43;;;19.00;60.20;;;;;;1867204;75;21435;-58
2022/09/05 09:57:16;;;;;;;8.40;6.08;;;19.00;60.20;;;;;;1901400;75;20953;-58
2022/09/05 09:59:47;;;;;;;11.63;7.55;;;19.00;59.60;;;;;;1901315;75;21517;-58
2022/09/05 10:02:23;;;;;;;16.17;7.97;;;19.00;59.80;;;;;;1895418;75;20987;-57
2022/09/05 10:04:55;;;;;;;11.12;8.40;;;19.00;60.00;;;;;;1901336;75;21020;-57
2022/09/05 10:07:51;;;;;;;10.43;6.62;;;19.00;60.40;;;;;;1901404;75;20977;-58
2022/09/05 10:10:44;;;;;;;13.45;8.33;;;19.10;60.00;;;;;;1900148;75;20964;-57
2022/09/05 10:13:50;;;;;;;12.23;8.40;;;19.10;60.00;;;;;;1901204;75;21461;-57
2022/09/05 10:16:54;;;;;;;13.70;9.58;;;19.20;60.30;;;;;;1901143;75;21063;-57
2022/09/05 10:19:40;;;;;;;15.80;9.28;;;19.20;59.70;;;;;;1901084;75;20973;-57
2022/09/05 10:22:15;;;;;;;12.15;8.40;;;19.30;59.60;;;;;;1897435;75;21072;-57
2022/09/05 10:24:52;;;;;;;10.98;7.67;;;19.40;59.70;;;;;;1890981;76;21447;-58
2022/09/05 10:27:41;;;;;;;7.97;6.10;;;19.40;59.10;;;;;;1891374;75;21490;-57
2022/09/05 10:30:22;;;;;;;12.07;7.58;;;19.40;58.50;;;;;;1891938;76;21079;-57
2022/09/05 10:33:28;;;;;;;12.30;7.58;;;19.40;59.10;;;;;;1889750;76;21424;-58
2022/09/05 10:36:03;;;;;;;15.13;7.85;;;19.30;58.80;;;;;;1892075;76;20985;-57
2022/09/05 10:38:40;;;;;;;10.55;6.92;;;19.30;58.80;;;;;;1891939;75;20977;-58
2022/09/05 10:41:14;;;;;;;9.98;6.92;;;19.30;58.80;;;;;;1891811;76;20957;-57
2022/09/05 10:43:55;;;;;;;13.45;8.20;;;19.20;58.70;;;;;;1892125;76;20957;-58
2022/09/05 10:46:26;;;;;;;10.08;7.17;;;19.20;59.10;;;;;;1841446;76;21129;-57
2022/09/05 10:48:58;;;;;;;9.90;7.15;;;19.30;58.80;;;;;;1891797;76;20950;-58
2022/09/05 10:51:35;;;;;;;13.20;6.58;;;19.30;58.80;;;;;;1891826;75;20973;-57
2022/09/05 10:54:07;;;;;;;12.43;7.83;;;19.40;58.50;;;;;;1875926;75;20969;-57
2022/09/05 10:56:39;;;;;;;12.53;7.53;;;19.40;58.40;;;;;;1891540;76;20969;-58
2022/09/05 10:59:14;;;;;;;10.68;7.37;;;19.40;58.40;;;;;;1891719;76;21414;-58
2022/09/05 11:01:46;;;;;;;;;;;19.50;58.40;;;;;;1834057;76;21029;-57
2022/09/05 11:04:48;;;;;;;9.58;7.00;;;19.50;58.30;;;;;;1891914;76;20358;-57
2022/09/05 11:07:26;;;;;;;8.63;6.47;;;19.60;58.10;;;;;;1891867;76;21447;-58
2022/09/05 11:10:12;;;;;;;11.70;7.75;;;19.60;57.80;;;;;;1847321;76;21063;-57
2022/09/05 11:12:47;;;;;;;10.08;7.25;;;19.60;58.20;;;;;;1891845;76;21377;-58
2022/09/05 11:15:36;;;;;;;13.88;8.30;;;19.60;57.90;;;;;;1892104;76;20977;-58
2022/09/05 11:18:08;;;;;;;9.18;6.17;;;19.60;57.80;;;;;;1891881;76;21460;-58
2022/09/05 11:20:52;;;;;;;10.53;6.78;;;19.70;57.00;;;;;;1891862;76;21035;-58
2022/09/05 11:23:26;;;;;;;10.10;6.42;;;19.60;57.50;;;;;;1891874;75;21078;-58
2022/09/05 11:25:59;;;;;;;7.95;5.70;;;19.60;57.40;;;;;;1890319;76;21044;-58
2022/09/05 11:28:31;;;;;;;6.87;5.33;;;19.70;57.40;;;;;;1891224;75;20993;-58
2022/09/05 11:31:02;;;;;;;9.43;6.85;;;19.70;57.20;;;;;;1891286;74;20997;-58
2022/09/05 11:33:48;;;;;;;7.58;6.33;;;19.80;57.60;;;;;;1891997;76;21018;-58
2022/09/05 11:36:20;;;;;;;7.55;4.83;;;19.70;57.10;;;;;;1890590;75;21473;-58
2022/09/05 11:39:00;;;;;;;9.05;6.55;;;19.60;57.00;;;;;;1892007;75;21049;-58
2022/09/05 11:41:34;;;;;;;10.98;6.17;;;19.50;57.10;;;;;;1857587;76;20966;-58
2022/09/05 11:44:23;;;;;;;11.12;6.05;;;19.60;57.30;;;;;;1892163;76;20982;-58
2022/09/05 11:47:13;;;;;;;26.77;14.15;;;19.60;57.10;;;;;;1886806;75;20981;-58
2022/09/05 11:49:44;;;;;;;8.83;5.95;;;19.70;57.50;;;;;;1891947;76;20961;-58
2022/09/05 11:52:31;;;;;;;9.65;5.25;;;19.80;57.00;;;;;;1889438;74;20969;-58
2022/09/05 11:55:33;;;;;;;8.18;5.62;;;19.90;56.40;;;;;;1890779;76;21435;-58
2022/09/05 11:58:26;;;;;;;7.12;5.30;;;19.90;56.90;;;;;;1891393;75;20981;-58
2022/09/05 12:01:06;;;;;;;7.87;5.70;;;20.00;57.10;;;;;;1891117;76;20996;-58
2022/09/05 12:04:07;;;;;;;9.28;5.22;;;19.90;56.40;;;;;;1891989;76;21016;-58
2022/09/05 12:06:43;;;;;;;7.62;4.72;;;20.00;56.80;;;;;;1892097;76;21509;-58
2022/09/05 12:09:40;;;;;;;8.30;4.85;;;20.10;55.90;;;;;;1890275;76;20966;-58
2022/09/05 12:12:22;;;;;;;7.95;5.30;;;20.20;56.20;;;;;;1891948;76;21076;-59
2022/09/05 12:15:19;;;;;;;8.15;5.20;;;20.30;55.90;;;;;;1891159;76;21064;-58
2022/09/05 12:17:57;;;;;;;9.98;4.85;;;20.50;56.00;;;;;;1891900;76;20977;-58
2022/09/05 12:20:49;;;;;;;4.85;3.67;;;20.60;55.50;;;;;;1891290;76;21447;-58
2022/09/05 12:23:39;;;;;;;7.83;4.47;;;20.60;54.20;;;;;;1891725;75;21033;-58
2022/09/05 12:26:11;;;;;;;8.13;4.30;;;20.50;54.50;;;;;;1892282;75;21083;-58
2022/09/05 12:28:58;;;;;;;7.17;4.45;;;20.40;54.40;;;;;;1889574;76;21463;-58
2022/09/05 12:31:32;;;;;;;14.23;5.87;;;20.50;54.90;;;;;;1889945;75;21055;-58
2022/09/05 12:34:08;;;;;;;3.95;2.95;;;20.60;55.00;;;;;;1890602;75;20993;-58
2022/09/05 12:36:39;;;;;;;5.00;3.37;;;20.70;52.90;;;;;;1891116;74;21060;-58
2022/09/05 12:39:32;;;;;;;6.20;4.40;;;20.60;53.10;;;;;;1891943;76;21083;-58
2022/09/05 12:42:03;;;;;;;6.42;4.50;;;20.40;53.80;;;;;;1891407;76;21047;-58
2022/09/05 12:44:47;;;;;;;6.58;5.67;;;20.40;54.90;;;;;;1891941;76;20985;-58
2022/09/05 12:47:22;;;;;;;7.22;4.90;;;20.60;55.00;;;;;;1892006;76;21059;-58
2022/09/05 12:50:12;;;;;;;4.95;3.37;;;20.80;54.40;;;;;;1892023;76;20945;-58
2022/09/05 12:52:46;;;;;;;9.30;4.20;;;21.00;53.10;;;;;;1891912;75;21447;-59
2022/09/05 12:55:31;;;;;;;7.30;4.97;;;21.00;53.40;;;;;;1891926;76;21439;-58
2022/09/05 12:58:02;;;;;;;4.17;3.42;;;20.90;52.80;;;;;;1891336;75;21459;-58
2022/09/05 13:00:44;;;;;;;7.05;4.65;;;20.80;52.80;;;;;;1891860;76;21044;-58
2022/09/05 13:03:27;;;;;;;4.85;3.85;;;20.70;53.40;;;;;;1884759;76;20985;-58
2022/09/05 13:06:08;;;;;;;6.92;4.22;;;20.60;53.30;;;;;;1891958;76;20973;-58
2022/09/05 13:08:48;;;;;;;6.12;4.10;;;20.50;54.30;;;;;;1891957;76;20973;-58
2022/09/05 13:11:22;;;;;;;4.58;3.08;;;20.50;54.40;;;;;;1891755;76;21013;-58
2022/09/05 13:14:10;;;;;;;5.53;4.30;;;20.60;53.00;;;;;;1892239;76;21381;-58
2022/09/05 13:16:43;;;;;;;4.78;3.90;;;20.50;53.60;;;;;;1890755;76;21047;-59
2022/09/05 13:19:46;;;;;;;12.58;4.17;;;20.50;53.60;;;;;;1891995;76;21494;-58
2022/09/05 13:22:17;;;;;;;3.95;3.08;;;20.50;54.00;;;;;;1891937;76;21572;-58
2022/09/05 13:24:51;;;;;;;4.42;3.75;;;20.50;53.60;;;;;;1891944;76;20977;-58
2022/09/05 13:27:26;;;;;;;4.03;3.47;;;20.50;53.40;;;;;;1890196;75;21455;-58
2022/09/05 13:29:58;;;;;;;4.47;3.30;;;20.50;53.50;;;;;;1898523;75;21474;-58
2022/09/05 13:32:36;;;;;;;9.00;4.08;;;20.50;53.10;;;;;;1897653;75;21047;-58
2022/09/05 13:35:31;;;;;;;9.98;7.12;;;20.40;53.10;;;;;;1898300;75;20985;-58
2022/09/05 13:38:05;;;;;;;8.50;5.70;;;20.50;53.70;;;;;;1898045;75;20969;-58
2022/09/05 13:40:37;;;;;;;6.28;4.35;;;20.50;53.80;;;;;;1892072;75;21047;-58
2022/09/05 13:43:12;;;;;;;7.80;3.67;;;20.50;54.20;;;;;;1897268;74;21004;-58
2022/09/05 13:46:02;;;;;;;8.18;4.15;;;20.50;53.30;;;;;;1898573;75;20981;-58
2022/09/05 13:48:48;;;;;;;5.62;3.85;;;20.50;53.40;;;;;;1898268;75;20977;-58
2022/09/05 13:51:27;;;;;;;6.60;3.33;;;20.50;53.30;;;;;;1898461;75;20976;-58